Thursday, March 21, 2019, 4:56 PM EDT
Back to Local

KFMH, Otis Air National Guard Base

Location: Mashpee, MA, United States Lat: 41.65
Local Time: 4:56 PM EDT (20:56 GMT) Lon: -70.517
Time Zone: US/Eastern Elev: 131 ft

Show me the last for .
Show Coded

Time T Td Feel RH Dir Speed Gust Alt SLP Vis Weather Sky Remarks
2019-03-21 16:35 43 34 35 70 100° 12 18 30.05 - 10 CLR None
2019-03-21 16:15 43 34 35 70 120° 15 - 30.08 - 10 CLR None
2019-03-21 15:55 43 34 34 70 110° 15 21 30.09 - 10 CLR None
2019-03-21 15:35 45 34 37 65 120° 10 18 30.10 - 10 CLR None
2019-03-21 15:15 45 32 36 61 120° 13 21 30.11 - 10 CLR None
2019-03-21 14:55 45 30 37 56 140° 17 - 30.12 - 10 CLR None
2019-03-21 14:35 46 27 38 45 120° 17 23 30.12 - 10 CLR None
2019-03-21 14:15 46 23 38 39 130° 14 23 30.12 - 10 CLR None
2019-03-21 13:55 48 23 42 36 140° 17 - 30.12 - 10 FEW055 None
2019-03-21 13:35 48 25 40 39 130° 18 26 30.14 - 10 BKN055 None
2019-03-21 13:15 48 25 40 39 130° 18 25 30.16 - 10 FEW050 None
2019-03-21 12:55 48 25 39 39 130° 17 32 30.16 - 10 SCT050 None
2019-03-21 12:35 46 27 38 45 130° 18 25 30.17 - 10 FEW050 None
2019-03-21 12:15 46 28 37 49 140° 22 30 30.17 - 10 SCT050 None
2019-03-21 11:55 48 30 40 49 140° 17 28 30.18 - 10 BKN055 None
2019-03-21 11:35 48 30 40 49 130° 22 29 30.19 - 10 BKN055 BKN080 None
2019-03-21 11:15 48 32 42 53 130° 17 - 30.21 - 10 SCT055 BKN070 BKN080 None
2019-03-21 10:55 46 32 40 56 140° 16 - 30.21 - 10 OVC065 None
2019-03-21 10:35 45 32 37 61 130° 18 - 30.22 - 10 OVC060 None
2019-03-21 10:15 45 32 36 61 130° 16 24 30.21 - 10 OVC060 None
2019-03-21 09:55 43 32 34 65 140° 20 - 30.22 - 10 OVC060 None
2019-03-21 09:35 43 32 33 65 130° 17 24 30.23 - 10 BKN060 None
2019-03-21 09:15 43 32 34 65 130° 15 21 30.23 - 10 SCT065 None
2019-03-21 08:55 43 30 34 60 130° 14 20 30.24 - 10 SCT065 SCT110 None
2019-03-21 08:35 41 30 31 65 120° 14 24 30.23 - 10 CLR None
2019-03-21 08:15 41 30 34 65 130° 12 - 30.24 - 10 CLR None
2019-03-21 07:55 37 30 30 74 130° 10 - 30.24 - 10 CLR None
2019-03-21 07:35 36 30 28 80 120° 10 - 30.25 - 10 CLR None
2019-03-21 07:15 34 28 28 80 130° 7 - 30.27 - 10 CLR None
2019-03-21 06:55 32 27 26 80 150° 6 - 30.27 - 10 CLR None
2019-03-21 06:35 30 27 23 86 140° 7 - 30.26 - 10 CLR None
2019-03-21 06:15 32 28 26 86 140° 6 - 30.27 - 10 CLR None
2019-03-21 05:55 30 27 27 86 150° 3 - 30.26 - 10 CLR None
2019-03-21 05:35 30 27 23 86 140° 7 - 30.25 - 10 CLR None
2019-03-21 05:15 30 25 23 80 130° 8 - 30.26 - 10 CLR None
2019-03-21 04:55 32 27 26 80 130° 7 - 30.27 - 10 CLR None
2019-03-21 04:35 30 27 23 86 140° 7 - 30.27 - 10 CLR None
2019-03-21 04:15 34 27 27 74 150° 8 - 30.28 - 10 CLR None
2019-03-21 03:55 34 28 28 80 160° 7 - 30.29 - 10 CLR None
2019-03-21 03:35 36 28 29 74 170° 8 - 30.29 - 10 SCT110 None
2019-03-21 03:15 34 28 27 80 180° 8 - 30.29 - 10 SCT120 None
2019-03-21 02:55 34 30 - 86 - Calm - 30.30 - 10 CLR None
2019-03-21 02:35 34 30 28 86 180° 7 - 30.31 - 10 CLR None
2019-03-21 02:15 34 30 30 86 180° 5 - 30.31 - 10 CLR None
2019-03-21 01:55 34 30 29 86 160° 6 - 30.32 - 10 CLR None
2019-03-21 01:35 36 30 31 80 170° 6 - 30.32 - 10 CLR None
2019-03-21 01:15 36 28 29 74 190° 8 - 30.32 - 10 CLR None
2019-03-21 00:55 34 28 27 80 190° 8 - 30.33 - 10 CLR None
2019-03-21 00:35 36 28 29 74 190° 9 - 30.33 - 10 CLR None
2019-03-21 00:15 36 30 29 80 190° 9 - 30.34 - 10 CLR None
2019-03-20 23:55 36 30 29 80 190° 9 - 30.33 - 10 CLR None
2019-03-20 23:35 36 30 29 80 190° 9 - 30.34 - 10 CLR None
2019-03-20 23:15 36 30 29 80 190° 9 - 30.34 - 10 CLR None
2019-03-20 22:55 37 30 31 74 180° 9 - 30.34 - 10 CLR None
2019-03-20 22:35 37 28 31 69 190° 9 - 30.34 - 10 CLR None
2019-03-20 22:15 36 28 29 74 200° 9 - 30.34 - 10 FEW048 None
2019-03-20 21:55 36 28 29 74 200° 9 - 30.35 - 10 FEW047 FEW055 None
2019-03-20 21:35 36 28 29 74 210° 9 - 30.35 - 10 FEW047 FEW055 None
2019-03-20 21:15 37 28 31 69 200° 9 - 30.35 - 10 FEW048 FEW060 None
2019-03-20 20:55 37 27 30 64 200° 12 - 30.35 - 10 CLR None
2019-03-20 20:35 37 27 30 64 200° 12 - 30.35 - 10 CLR None
2019-03-20 20:15 37 28 31 69 200° 9 - 30.35 - 10 FEW050 None
2019-03-20 19:55 37 28 31 69 190° 9 - 30.34 - 10 FEW050 FEW060 None
2019-03-20 19:35 39 28 32 64 180° 12 - 30.35 - 10 FEW049 FEW060 None
2019-03-20 19:15 39 28 32 64 200° 10 - 30.34 - 10 CLR None
2019-03-20 18:55 39 28 32 64 200° 12 - 30.34 - 10 CLR None
2019-03-20 18:35 41 28 33 60 190° 14 - 30.34 - 10 CLR None
2019-03-20 18:15 43 27 35 52 190° 15 - 30.34 - 10 CLR None
2019-03-20 17:55 43 23 35 45 200° 15 - 30.34 - 10 CLR None
2019-03-20 17:35 43 21 35 41 200° 17 - 30.34 - 10 CLR None
2019-03-20 17:15 45 23 36 42 200° 15 24 30.34 - 10 CLR None

Support USWX by starting your Amazon purchase here.